Time;durP1;ratioP1;P1;durP2;ratioP2;P2;SDS_P1;SDS_P2;PMS_P1;PMS_P2;Temp;Humidity;BMP_temperature;BMP_pressure;BME280_temperature;BME280_humidity;BME280_pressure;Samples;Min_cycle;Max_cycle;Signal;HPM_P1;HPM_P2
2022/06/24 00:00:03;;;;;;;3.67;1.30;;;;;;;20.11;62.05;100302.75;7388156;19;20011;-77
2022/06/24 00:02:30;;;;;;;5.28;1.27;;;;;;;20.10;62.79;100300.28;7384860;19;20517;-78
2022/06/24 00:05:01;;;;;;;5.40;1.38;;;;;;;20.09;62.85;100296.78;7387787;19;20029;-77
2022/06/24 00:07:28;;;;;;;8.00;1.27;;;;;;;20.06;63.17;100299.94;7387366;19;20070;-77
2022/06/24 00:09:54;;;;;;;6.70;1.70;;;;;;;20.02;63.20;100293.38;7389329;19;20010;-78
2022/06/24 00:12:25;;;;;;;8.32;1.38;;;;;;;19.99;63.99;100294.69;7388129;19;20458;-78
2022/06/24 00:14:58;;;;;;;3.85;1.10;;;;;;;19.94;63.52;100299.06;7389413;19;20018;-76
2022/06/24 00:17:28;;;;;;;;;;;;;;;19.94;64.03;100293.72;7385821;19;20089;-77
2022/06/24 00:20:04;;;;;;;5.90;1.00;;;;;;;19.87;63.74;100285.78;7387626;19;19935;-78
2022/06/24 00:22:42;;;;;;;4.88;1.35;;;;;;;19.79;64.07;100296.81;7384547;19;20018;-78
2022/06/24 00:25:31;;;;;;;9.43;1.50;;;;;;;19.75;64.53;100292.16;7387033;19;20082;-77
2022/06/24 00:28:02;;;;;;;5.30;1.58;;;;;;;19.69;64.28;100293.03;7386076;19;20014;-78
2022/06/24 00:30:51;;;;;;;7.47;1.75;;;;;;;19.70;65.71;100287.50;7387528;19;20016;-77
2022/06/24 00:33:22;;;;;;;6.90;1.70;;;;;;;19.73;65.94;100287.03;7386707;19;20689;-78
2022/06/24 00:35:50;;;;;;;7.57;1.87;;;;;;;19.68;66.31;100286.88;7385001;19;20024;-77
2022/06/24 00:38:28;;;;;;;4.30;1.90;;;;;;;19.62;67.15;100285.13;7387186;19;20010;-78
2022/06/24 00:41:08;;;;;;;6.05;2.15;;;;;;;19.58;67.35;100289.28;7384556;19;20017;-77
2022/06/24 00:43:41;;;;;;;7.97;2.25;;;;;;;19.55;68.29;100287.06;7387201;19;20023;-77
2022/06/24 00:46:19;;;;;;;11.00;3.10;;;;;;;19.46;69.20;100277.72;7384994;19;20467;-77
2022/06/24 00:48:48;;;;;;;9.00;4.15;;;;;;;19.42;70.47;100276.50;7385021;19;20102;-77
2022/06/24 00:51:16;;;;;;;10.00;4.68;;;;;;;19.29;71.28;100276.69;7386645;19;20039;-78
2022/06/24 00:53:47;;;;;;;10.80;5.68;;;;;;;19.22;72.34;100268.75;7387533;19;20025;-76
2022/06/24 00:56:17;;;;;;;11.85;5.75;;;;;;;19.17;73.44;100269.41;7386888;19;20029;-76
2022/06/24 00:58:52;;;;;;;13.13;6.43;;;;;;;19.11;74.04;100280.97;7386177;19;20089;-78
2022/06/24 01:01:34;;;;;;;15.32;6.75;;;;;;;19.07;74.17;100273.63;7382324;19;20013;-77
2022/06/24 01:04:03;;;;;;;14.20;6.60;;;;;;;19.08;74.44;100273.41;7384566;19;20022;-77
2022/06/24 01:06:31;;;;;;;14.70;7.03;;;;;;;19.10;75.44;100263.31;7383777;19;20090;-77
2022/06/24 01:08:58;;;;;;;14.88;7.25;;;;;;;19.09;75.06;100260.91;7382844;19;20018;-77
2022/06/24 01:11:30;;;;;;;14.25;6.95;;;;;;;19.04;75.21;100255.41;7386116;19;20015;-77
2022/06/24 01:13:57;;;;;;;13.23;7.95;;;;;;;18.99;75.50;100260.59;7384590;19;20014;-77
2022/06/24 01:16:25;;;;;;;18.23;8.05;;;;;;;18.99;75.85;100257.94;7383421;19;20783;-77
2022/06/24 01:18:54;;;;;;;17.15;8.00;;;;;;;19.00;75.91;100247.03;7383350;19;20317;-78
2022/06/24 01:21:34;;;;;;;16.63;7.38;;;;;;;19.03;75.75;100243.13;7388164;19;20030;-78
2022/06/24 01:24:06;;;;;;;14.25;8.20;;;;;;;19.03;75.87;100249.28;7384666;19;20189;-76
2022/06/24 01:26:35;;;;;;;16.92;8.30;;;;;;;19.03;75.66;100235.13;7383331;19;20367;-76
2022/06/24 01:29:07;;;;;;;13.05;7.63;;;;;;;19.01;75.91;100239.84;7385503;19;20370;-77
2022/06/24 01:31:34;;;;;;;15.60;7.93;;;;;;;19.00;76.36;100231.03;7384828;19;20152;-77
2022/06/24 01:34:01;;;;;;;14.15;7.97;;;;;;;18.96;76.40;100229.84;7383969;19;20010;-77
2022/06/24 01:36:28;;;;;;;18.05;8.13;;;;;;;18.88;76.37;100232.81;7382879;19;20400;-77
2022/06/24 01:38:55;;;;;;;13.93;6.97;;;;;;;18.88;76.25;100232.81;7383601;19;20781;-78
2022/06/24 01:41:22;;;;;;;22.55;8.82;;;;;;;18.93;77.20;100224.97;7383174;19;20107;-77
2022/06/24 01:43:49;;;;;;;15.30;7.60;;;;;;;18.95;76.72;100228.22;7383255;19;20379;-78
2022/06/24 01:46:15;;;;;;;13.70;7.32;;;;;;;18.94;75.95;100226.59;7382375;19;20039;-77
2022/06/24 01:48:42;;;;;;;14.93;7.47;;;;;;;18.90;76.25;100214.72;7384281;19;20023;-77
2022/06/24 01:51:14;;;;;;;15.25;6.70;;;;;;;18.93;76.48;100226.81;7385163;19;20010;-77
2022/06/24 01:53:41;;;;;;;14.07;6.38;;;;;;;18.94;76.91;100228.47;7383401;19;20007;-77
2022/06/24 01:56:08;;;;;;;16.92;7.43;;;;;;;18.93;76.30;100221.50;7382111;19;20094;-77
2022/06/24 01:58:35;;;;;;;16.90;7.70;;;;;;;18.96;76.44;100221.03;7384540;19;20014;-77
2022/06/24 02:01:02;;;;;;;15.27;7.88;;;;;;;18.90;76.31;100216.56;7382259;19;20410;-76
2022/06/24 02:03:32;;;;;;;14.27;7.53;;;;;;;18.87;77.13;100217.03;7383859;19;20026;-77
2022/06/24 02:06:04;;;;;;;13.30;6.93;;;;;;;18.90;76.69;100216.56;7384797;19;20348;-77
2022/06/24 02:08:31;;;;;;;19.52;7.40;;;;;;;18.90;76.81;100212.06;7382055;19;20681;-78
2022/06/24 02:14:02;;;;;;;15.25;7.43;;;;;;;18.91;76.52;100204.88;7379575;19;20014;-76
2022/06/24 02:16:29;;;;;;;23.23;10.18;;;;;;;18.92;77.31;100207.34;7380715;19;20098;-77
2022/06/24 02:18:57;;;;;;;14.52;7.53;;;;;;;18.94;77.51;100207.94;7381940;19;20022;-77
2022/06/24 02:21:25;;;;;;;14.82;7.40;;;;;;;18.98;77.05;100198.44;7383667;19;20130;-76
2022/06/24 02:23:53;;;;;;;17.00;7.63;;;;;;;18.99;77.09;100205.41;7380288;19;20017;-77
2022/06/24 02:26:20;;;;;;;14.43;6.88;;;;;;;19.01;77.26;100197.19;7384721;19;20136;-77
2022/06/24 02:28:47;;;;;;;15.43;7.78;;;;;;;19.02;77.10;100196.16;7382989;19;20114;-76
2022/06/24 02:31:15;;;;;;;13.32;7.43;;;;;;;18.98;77.08;100194.97;7381724;19;20070;-77
2022/06/24 02:33:42;;;;;;;16.40;8.20;;;;;;;18.89;77.41;100188.31;7383325;19;20041;-77
2022/06/24 02:36:09;;;;;;;19.08;7.70;;;;;;;18.92;78.31;100187.84;7384205;19;20006;-76
2022/06/24 02:38:36;;;;;;;16.27;8.27;;;;;;;18.88;77.79;100190.16;7381778;19;20011;-77
2022/06/24 02:41:11;;;;;;;16.17;7.90;;;;;;;18.85;77.71;100179.91;7382434;19;20693;-76
2022/06/24 02:43:39;;;;;;;17.02;8.13;;;;;;;18.85;78.36;100189.78;7381724;19;20015;-77
2022/06/24 02:46:12;;;;;;;16.90;8.30;;;;;;;18.86;78.19;100183.41;7381053;19;20022;-77
2022/06/24 02:48:41;;;;;;;14.60;7.65;;;;;;;18.85;78.18;100184.44;7383739;19;20025;-77
2022/06/24 02:51:13;;;;;;;13.95;8.15;;;;;;;18.86;78.36;100175.41;7381161;19;20082;-77
2022/06/24 02:53:40;;;;;;;21.73;11.13;;;;;;;18.90;79.20;100179.25;7388190;19;20011;-77
2022/06/24 02:56:11;;;;;;;18.88;9.02;;;;;;;18.90;78.49;100166.75;7390227;19;20070;-77
2022/06/24 02:58:39;;;;;;;19.52;8.93;;;;;;;18.86;78.41;100157.56;7390559;19;20578;-77
2022/06/24 03:01:07;;;;;;;16.20;8.95;;;;;;;18.85;78.88;100147.94;7388863;19;20035;-77
2022/06/24 03:03:34;;;;;;;17.23;9.13;;;;;;;18.85;78.64;100147.94;7387535;19;20121;-77
2022/06/24 03:06:03;;;;;;;17.83;8.32;;;;;;;18.85;78.99;100149.78;7388944;19;20682;-78
2022/06/24 03:08:30;;;;;;;15.38;8.38;;;;;;;18.83;78.82;100141.22;7389833;19;20014;-77
2022/06/24 03:10:57;;;;;;;21.60;10.25;;;;;;;18.82;79.22;100139.56;7388758;19;20014;-77
2022/06/24 03:13:24;;;;;;;19.48;9.32;;;;;;;18.82;79.45;100139.56;7388003;19;20010;-78
2022/06/24 03:15:52;;;;;;;18.13;8.43;;;;;;;18.80;78.88;100129.13;7389479;19;20073;-78
2022/06/24 03:18:19;;;;;;;20.60;9.73;;;;;;;18.81;79.06;100122.75;7390162;19;20433;-78
2022/06/24 03:20:46;;;;;;;19.08;8.93;;;;;;;18.82;78.77;100127.06;7389040;19;20130;-78
2022/06/24 03:23:15;;;;;;;17.02;10.00;;;;;;;18.79;78.38;100122.19;7389425;19;20466;-77
2022/06/24 03:25:42;;;;;;;19.58;9.77;;;;;;;18.75;78.49;100115.66;7388737;19;20011;-78
2022/06/24 03:28:10;;;;;;;16.33;8.73;;;;;;;18.71;78.74;100112.63;7389611;19;20014;-77
2022/06/24 03:30:37;;;;;;;15.70;9.15;;;;;;;18.71;78.41;100111.81;7389029;19;20014;-77
2022/06/24 03:33:05;;;;;;;16.90;9.45;;;;;;;18.68;78.60;100118.41;7385550;19;20022;-78
2022/06/24 03:35:32;;;;;;;14.88;8.68;;;;;;;18.65;78.56;100108.19;7389299;19;20017;-78
2022/06/24 03:37:59;;;;;;;16.70;8.93;;;;;;;18.60;78.31;100099.22;7389384;19;20107;-78
2022/06/24 03:40:25;;;;;;;14.85;9.10;;;;;;;18.54;78.77;100106.25;7389388;19;20011;-77
2022/06/24 03:42:53;;;;;;;20.42;10.13;;;;;;;18.55;78.77;100101.75;7389449;19;20589;-79
2022/06/24 03:45:21;;;;;;;21.85;9.18;;;;;;;18.55;78.90;100099.06;7388055;19;20019;-77
2022/06/24 03:47:49;;;;;;;16.38;9.73;;;;;;;18.58;79.54;100104.81;7387792;19;20018;-78
2022/06/24 03:50:16;;;;;;;22.40;9.80;;;;;;;18.59;79.16;100105.63;7385814;19;20089;-78
2022/06/24 03:52:44;;;;;;;14.70;8.63;;;;;;;18.59;78.83;100106.41;7391578;19;20343;-77
2022/06/24 03:55:11;;;;;;;21.02;9.48;;;;;;;18.64;78.94;100117.22;7387726;19;20482;-77
2022/06/24 03:57:38;;;;;;;18.98;9.20;;;;;;;18.65;78.23;100115.38;7387353;19;20062;-77
2022/06/24 04:00:07;;;;;;;17.25;10.38;;;;;;;18.63;78.13;100120.94;7387442;19;20102;-77
2022/06/24 04:02:35;;;;;;;17.60;9.13;;;;;;;18.63;78.35;100118.28;7385461;19;20018;-77
2022/06/24 04:05:02;;;;;;;19.33;10.70;;;;;;;18.64;78.26;100124.41;7384297;19;20015;-78
2022/06/24 04:07:29;;;;;;;19.85;10.20;;;;;;;18.66;77.87;100125.00;7387273;19;20102;-77
2022/06/24 04:09:56;;;;;;;15.10;8.43;;;;;;;18.67;77.88;100124.78;7387426;19;20078;-78
2022/06/24 04:12:23;;;;;;;17.58;9.20;;;;;;;18.64;77.45;100119.88;7388657;19;20025;-78
2022/06/24 04:17:35;;;;;;;17.77;8.60;;;;;;;18.59;77.53;100119.72;7385992;19;20018;-78
2022/06/24 04:20:03;;;;;;;14.82;8.07;;;;;;;18.55;77.69;100115.88;7388957;19;20025;-77
2022/06/24 04:22:30;;;;;;;19.25;10.45;;;;;;;18.52;78.22;100115.50;7388677;19;20018;-78
2022/06/24 04:24:57;;;;;;;18.88;8.85;;;;;;;18.54;78.33;100110.78;7386682;19;20026;-79
2022/06/24 04:27:24;;;;;;;14.35;9.13;;;;;;;18.52;77.98;100116.31;7388717;19;20156;-78
2022/06/24 04:29:51;;;;;;;16.48;9.30;;;;;;;18.50;77.64;100117.56;7389150;19;20082;-78
2022/06/24 04:32:18;;;;;;;13.65;8.40;;;;;;;18.52;77.97;100120.81;7383418;19;20013;-78
2022/06/24 04:34:45;;;;;;;16.50;8.75;;;;;;;18.48;77.67;100120.47;7384362;19;20092;-80
2022/06/24 04:37:12;;;;;;;17.17;8.38;;;;;;;18.42;77.96;100124.00;7388044;19;20078;-78
2022/06/24 04:39:39;;;;;;;16.75;8.20;;;;;;;18.40;77.87;100115.41;7382547;19;20014;-77
2022/06/24 04:42:06;;;;;;;18.60;8.77;;;;;;;18.38;78.38;100110.31;7387914;19;20078;-78
2022/06/24 04:44:32;;;;;;;18.95;9.55;;;;;;;18.39;78.30;100121.75;7385073;19;20006;-77
2022/06/24 04:47:05;;;;;;;14.77;8.45;;;;;;;18.39;78.11;100119.91;7384958;19;20063;-76
2022/06/24 04:49:33;;;;;;;17.20;8.27;;;;;;;18.35;77.74;100121.41;7386154;19;20007;-79
2022/06/24 04:52:00;;;;;;;15.05;8.40;;;;;;;18.33;77.81;100115.50;7388006;19;20029;-76
2022/06/24 04:54:27;;;;;;;14.57;8.30;;;;;;;18.35;77.95;100112.59;7384915;19;20123;-76
2022/06/24 04:56:54;;;;;;;18.10;7.88;;;;;;;18.33;77.84;100117.34;7386704;19;20018;-78
2022/06/24 04:59:20;;;;;;;16.77;9.50;;;;;;;18.30;78.65;100121.25;7388242;19;20135;-77
2022/06/24 05:01:47;;;;;;;17.30;8.65;;;;;;;18.32;78.34;100119.19;7383990;19;20014;-77
2022/06/24 05:04:14;;;;;;;16.15;8.52;;;;;;;18.32;77.97;100129.03;7384017;19;20128;-78
2022/06/24 05:06:41;;;;;;;13.10;7.20;;;;;;;18.25;78.09;100121.09;7385743;19;20078;-78
2022/06/24 05:09:08;;;;;;;14.73;7.75;;;;;;;18.21;78.52;100117.25;7387316;19;20027;-78
2022/06/24 05:11:35;;;;;;;14.85;8.52;;;;;;;18.19;78.30;100119.31;7386167;19;20018;-77
2022/06/24 05:14:02;;;;;;;16.80;9.05;;;;;;;18.14;78.12;100123.66;7387406;19;20024;-77
2022/06/24 05:16:30;;;;;;;16.45;8.55;;;;;;;18.11;79.13;100119.59;7380754;19;20090;-78
2022/06/24 05:19:05;;;;;;;16.27;9.05;;;;;;;18.15;79.03;100117.31;7386748;19;20025;-79
2022/06/24 05:21:32;;;;;;;17.98;8.23;;;;;;;18.18;78.43;100114.22;7386058;19;20031;-78
2022/06/24 05:23:59;;;;;;;16.58;8.27;;;;;;;18.19;78.76;100118.50;7385463;19;20010;-79
2022/06/24 05:26:26;;;;;;;17.73;7.72;;;;;;;18.19;78.77;100127.28;7385715;19;20014;-78
2022/06/24 05:28:53;;;;;;;14.30;7.75;;;;;;;18.16;78.77;100122.41;7386079;19;20408;-78
2022/06/24 05:31:20;;;;;;;12.27;7.82;;;;;;;18.16;78.91;100124.28;7385522;19;20110;-77
2022/06/24 05:33:47;;;;;;;22.27;8.30;;;;;;;18.18;78.64;100117.69;7383801;19;20358;-79
2022/06/24 05:36:15;;;;;;;16.70;8.95;;;;;;;18.12;78.78;100129.22;7383664;19;20070;-78
2022/06/24 05:38:44;;;;;;;13.90;8.52;;;;;;;18.12;78.35;100128.41;7386413;19;20539;-78
2022/06/24 05:41:12;;;;;;;15.43;8.38;;;;;;;18.04;78.21;100129.47;7387112;19;20426;-77
2022/06/24 05:43:39;;;;;;;18.13;8.05;;;;;;;17.99;78.32;100124.00;7384487;19;20495;-77
2022/06/24 05:46:06;;;;;;;16.60;8.45;;;;;;;17.93;78.90;100127.53;7385218;19;20317;-77
2022/06/24 05:48:33;;;;;;;14.15;8.00;;;;;;;17.94;78.85;100118.53;7385360;19;20017;-78
2022/06/24 05:51:10;;;;;;;19.73;11.65;;;;;;;17.95;79.75;100118.31;7385710;19;20081;-77
2022/06/24 05:56:24;;;;;;;16.05;8.60;;;;;;;18.04;79.28;100126.00;7382701;19;20014;-77
2022/06/24 05:58:51;;;;;;;16.10;8.23;;;;;;;18.06;78.83;100122.09;7384245;19;20018;-79
2022/06/24 06:01:18;;;;;;;13.10;8.13;;;;;;;18.11;78.88;100124.09;7382236;19;20014;-78
2022/06/24 06:03:46;;;;;;;14.75;7.88;;;;;;;18.14;78.66;100121.00;7382751;19;20028;-77
2022/06/24 06:06:13;;;;;;;13.20;7.57;;;;;;;18.15;78.78;100122.63;7382620;19;20511;-77
2022/06/24 06:08:40;;;;;;;14.70;7.75;;;;;;;18.17;78.25;100126.72;7386071;19;20115;-77
2022/06/24 06:11:16;;;;;;;16.83;8.43;;;;;;;18.20;79.25;100123.59;7385800;19;20089;-78
2022/06/24 06:13:45;;;;;;;15.88;8.60;;;;;;;18.23;77.66;100133.03;7387006;19;20019;-77
2022/06/24 06:16:12;;;;;;;17.83;7.95;;;;;;;18.22;78.25;100126.06;7382493;19;20465;-78
2022/06/24 06:18:39;;;;;;;13.95;8.55;;;;;;;18.21;78.33;100119.91;7382207;19;20027;-77
2022/06/24 06:21:08;;;;;;;13.88;8.27;;;;;;;18.23;77.86;100117.84;7383191;19;20006;-78
2022/06/24 06:23:37;;;;;;;11.73;7.43;;;;;;;18.27;77.45;100113.72;7385059;19;20019;-78
2022/06/24 06:26:07;;;;;;;13.18;8.13;;;;;;;18.33;77.44;100112.00;7382758;19;20089;-75
2022/06/24 06:28:34;;;;;;;12.98;9.00;;;;;;;18.36;77.81;100117.72;7385022;19;20018;-77
2022/06/24 06:31:02;;;;;;;16.80;8.98;;;;;;;18.40;77.42;100120.75;7381534;19;20090;-79
2022/06/24 06:33:32;;;;;;;14.73;8.55;;;;;;;18.43;77.10;100124.81;7385147;19;20010;-78
2022/06/24 06:36:04;;;;;;;13.95;8.52;;;;;;;18.48;77.12;100120.47;7383335;19;20029;-79
2022/06/24 06:38:32;;;;;;;12.83;7.60;;;;;;;18.54;76.75;100118.78;7382503;19;20090;-78
2022/06/24 06:40:59;;;;;;;16.15;8.25;;;;;;;18.56;76.47;100122.03;7382424;19;20286;-78
2022/06/24 06:43:27;;;;;;;10.75;7.20;;;;;;;18.59;76.36;100118.94;7384606;19;20045;-78
2022/06/24 06:45:55;;;;;;;15.20;8.63;;;;;;;18.62;76.32;100113.97;7381512;19;20041;-79
2022/06/24 06:48:23;;;;;;;14.18;7.45;;;;;;;18.65;76.40;100115.38;7383448;19;20277;-78
2022/06/24 06:50:57;;;;;;;16.58;7.40;;;;;;;18.68;75.75;100107.75;7382920;19;20014;-79
2022/06/24 06:53:26;;;;;;;11.90;6.65;;;;;;;18.65;75.79;100110.84;7382772;19;20056;-78
2022/06/24 06:55:53;;;;;;;11.77;6.22;;;;;;;18.59;75.47;100108.28;7383281;19;20026;-78
2022/06/24 06:58:24;;;;;;;10.88;6.18;;;;;;;18.58;75.82;100110.13;7380781;19;20021;-78
2022/06/24 07:00:51;;;;;;;10.50;5.80;;;;;;;18.58;75.84;100117.31;7381039;19;20011;-78
2022/06/24 07:03:19;;;;;;;10.95;6.15;;;;;;;18.61;76.25;100108.84;7379763;19;20023;-79
2022/06/24 07:05:46;;;;;;;11.45;6.25;;;;;;;18.64;76.31;100111.88;7378358;19;20018;-78
2022/06/24 07:08:15;;;;;;;12.50;6.25;;;;;;;18.70;75.60;100096.84;7381298;19;20461;-77
2022/06/24 07:10:44;;;;;;;12.90;5.47;;;;;;;18.73;75.22;100101.75;7382586;19;20029;-78
2022/06/24 07:13:11;;;;;;;9.93;5.55;;;;;;;18.78;74.49;100107.22;7379933;19;20007;-78
2022/06/24 07:15:39;;;;;;;8.10;5.13;;;;;;;18.78;74.67;100093.91;7382433;19;20019;-78
2022/06/24 07:18:06;;;;;;;11.70;5.15;;;;;;;18.81;74.42;100098.75;7380619;19;20010;-79
2022/06/24 07:20:34;;;;;;;7.95;4.40;;;;;;;18.85;74.82;100097.28;7384479;19;20102;-76
2022/06/24 07:23:01;;;;;;;9.20;4.85;;;;;;;18.90;74.69;100094.75;7384149;19;20042;-77
2022/06/24 07:25:29;;;;;;;15.68;6.00;;;;;;;18.98;74.57;100096.31;7381267;19;20345;-77
2022/06/24 07:27:56;;;;;;;11.35;5.68;;;;;;;19.06;73.63;100099.47;7384122;19;20025;-77
2022/06/24 07:30:23;;;;;;;9.40;4.72;;;;;;;19.11;73.30;100099.59;7381900;19;20802;-78
2022/06/24 07:32:50;;;;;;;9.25;4.57;;;;;;;19.15;73.02;100099.94;7382077;19;20547;-77
2022/06/24 07:35:17;;;;;;;9.43;4.68;;;;;;;19.17;72.77;100103.22;7382059;19;20019;-76
2022/06/24 07:38:04;;;;;;;9.93;4.93;;;;;;;19.23;72.83;100108.47;7382927;19;20399;-78
2022/06/24 07:40:31;;;;;;;8.00;3.80;;;;;;;19.27;71.71;100108.00;7390856;19;20021;-77
2022/06/24 07:42:58;;;;;;;9.45;3.70;;;;;;;19.36;71.96;100103.94;7391995;19;20542;-76
2022/06/24 07:45:25;;;;;;;16.10;4.15;;;;;;;19.72;72.19;100103.84;7382945;19;20022;-77
2022/06/24 07:47:52;;;;;;;5.40;3.03;;;;;;;20.13;69.90;100100.25;7387122;19;20014;-77
2022/06/24 07:50:19;;;;;;;6.55;2.72;;;;;;;20.29;68.26;100096.06;7388341;19;20035;-77
2022/06/24 07:52:46;;;;;;;8.95;2.92;;;;;;;20.33;68.18;100113.28;7388374;19;20470;-77
2022/06/24 07:57:58;;;;;;;5.05;2.80;;;;;;;20.29;67.47;100094.19;7389696;19;20534;-77
2022/06/24 08:00:25;;;;;;;4.32;2.08;;;;;;;20.29;68.48;100093.38;7389448;19;20054;-77
2022/06/24 08:02:52;;;;;;;7.78;4.20;;;;;;;20.27;68.80;100085.59;7388329;19;20023;-77
2022/06/24 08:05:20;;;;;;;4.78;2.28;;;;;;;20.26;68.78;100075.16;7388395;19;20014;-76
2022/06/24 08:07:47;;;;;;;5.22;2.00;;;;;;;20.27;68.46;100071.41;7389210;19;20108;-76
2022/06/24 08:10:14;;;;;;;5.25;1.90;;;;;;;20.25;68.03;100070.84;7386303;19;20206;-79
2022/06/24 08:12:41;;;;;;;5.55;2.05;;;;;;;20.25;68.40;100074.34;7389042;19;20030;-79
2022/06/24 08:15:08;;;;;;;6.85;1.70;;;;;;;20.24;68.24;100072.72;7387021;19;20007;-77
2022/06/24 08:17:35;;;;;;;3.70;1.70;;;;;;;20.26;68.44;100075.16;7385948;19;20029;-77
2022/06/24 08:20:03;;;;;;;8.20;1.45;;;;;;;20.27;68.26;100068.75;7387125;19;20090;-77
2022/06/24 08:22:30;;;;;;;4.68;2.00;;;;;;;20.32;68.21;100068.88;7388480;19;20014;-79
2022/06/24 08:24:57;;;;;;;6.57;2.38;;;;;;;20.35;69.27;100063.09;7387383;19;20677;-77
2022/06/24 08:27:44;;;;;;;4.40;1.70;;;;;;;20.41;69.76;100054.94;7387788;19;20022;-77
2022/06/24 08:30:11;;;;;;;4.68;1.50;;;;;;;20.47;68.52;100061.19;7388806;19;20463;-79
2022/06/24 08:32:38;;;;;;;3.85;1.27;;;;;;;20.51;67.08;100057.00;7386352;19;20014;-78
2022/06/24 08:35:06;;;;;;;5.32;1.40;;;;;;;20.56;67.00;100058.97;7387332;19;20042;-77
2022/06/24 08:37:53;;;;;;;4.20;1.20;;;;;;;20.61;66.92;100051.06;7386989;19;20482;-79
2022/06/24 08:40:20;;;;;;;4.40;1.15;;;;;;;20.66;67.48;100045.81;7385699;19;20018;-78
2022/06/24 08:42:52;;;;;;;5.15;1.08;;;;;;;20.65;66.26;100042.31;7388740;19;20090;-77
2022/06/24 08:45:19;;;;;;;2.53;0.82;;;;;;;20.69;66.57;100045.31;7385279;19;20530;-77
2022/06/24 08:47:48;;;;;;;5.65;1.10;;;;;;;20.75;66.77;100039.03;7383264;19;20027;-78
2022/06/24 08:50:16;;;;;;;4.60;1.00;;;;;;;20.79;66.83;100034.81;7386206;19;20022;-78
2022/06/24 08:52:49;;;;;;;4.78;1.00;;;;;;;20.85;66.18;100036.53;7388390;19;20115;-78
2022/06/24 08:55:22;;;;;;;2.95;0.70;;;;;;;20.88;66.59;100034.19;7387055;19;20011;-77
2022/06/24 08:57:49;;;;;;;5.20;0.80;;;;;;;20.92;66.32;100035.34;7388915;19;20074;-78
2022/06/24 09:00:20;;;;;;;4.72;0.73;;;;;;;20.95;65.48;100030.56;7385784;19;20035;-78
2022/06/24 09:02:48;;;;;;;4.20;0.80;;;;;;;20.99;65.38;100035.19;7383007;19;20600;-78
2022/06/24 09:05:16;;;;;;;3.42;0.70;;;;;;;21.05;64.97;100028.88;7385343;19;20089;-78
2022/06/24 09:07:45;;;;;;;2.75;0.60;;;;;;;21.10;64.68;100020.13;7385688;19;20026;-78
2022/06/24 09:10:14;;;;;;;2.72;0.77;;;;;;;21.12;64.20;100023.38;7390551;19;20439;-78
2022/06/24 09:12:48;;;;;;;4.43;0.57;;;;;;;21.17;63.41;100021.63;7387328;19;20090;-78
2022/06/24 09:15:16;;;;;;;3.08;0.80;;;;;;;21.24;63.98;100024.13;7384993;19;20014;-78
2022/06/24 09:17:44;;;;;;;3.70;0.50;;;;;;;21.34;63.57;100027.78;7383009;19;20070;-78
2022/06/24 09:20:14;;;;;;;3.17;0.60;;;;;;;21.42;63.25;100023.09;7384805;19;20036;-78
2022/06/24 09:23:07;;;;;;;2.28;0.57;;;;;;;21.51;63.62;100030.47;7389344;19;20368;-77
2022/06/24 09:25:44;;;;;;;1.45;0.60;;;;;;;21.58;63.35;100019.63;7385380;19;20119;-79
2022/06/24 09:28:19;;;;;;;2.80;0.50;;;;;;;21.56;62.42;100019.84;7386287;19;20397;-78
2022/06/24 09:30:46;;;;;;;1.30;1.00;;;;;;;21.57;62.45;100023.34;7385273;19;20031;-78
2022/06/24 09:33:18;;;;;;;5.18;1.05;;;;;;;21.59;62.97;100018.53;7385199;19;20014;-79
2022/06/24 09:36:04;;;;;;;3.17;0.60;;;;;;;21.61;62.49;100022.59;7382976;19;20531;-79
2022/06/24 09:38:31;;;;;;;2.97;0.60;;;;;;;21.68;63.24;100017.09;7383720;19;20022;-77
2022/06/24 09:41:06;;;;;;;0.93;0.50;;;;;;;21.69;62.38;100011.47;7387008;19;20026;-79
2022/06/24 09:43:33;;;;;;;5.90;0.60;;;;;;;21.71;61.70;100011.22;7386109;19;20377;-78
2022/06/24 09:46:00;;;;;;;3.55;0.70;;;;;;;21.74;62.04;100003.50;7384228;19;20384;-78
2022/06/24 09:48:37;;;;;;;1.20;0.47;;;;;;;21.78;62.22;100001.16;7382700;19;20018;-78
2022/06/24 09:51:06;;;;;;;2.97;0.50;;;;;;;21.76;62.02;100000.59;7384887;19;20081;-80
2022/06/24 09:53:36;;;;;;;3.30;0.50;;;;;;;21.77;61.93;100008.38;7385163;19;20518;-79
2022/06/24 09:56:07;;;;;;;5.25;1.02;;;;;;;21.79;61.72;100007.34;7385749;19;20139;-77
2022/06/24 09:58:36;;;;;;;2.80;0.40;;;;;;;21.80;61.25;100004.38;7382332;19;20553;-79
2022/06/24 10:01:04;;;;;;;1.20;0.50;;;;;;;21.76;61.51;100003.25;7332443;19;20018;-78
2022/06/24 10:03:32;;;;;;;3.63;0.50;;;;;;;21.75;61.85;100001.63;7376635;19;20463;-79
2022/06/24 10:06:08;;;;;;;1.83;0.50;;;;;;;21.78;61.27;100006.53;7371408;19;20036;-78
2022/06/24 10:08:36;;;;;;;3.05;0.40;;;;;;;21.80;61.38;100004.38;7382980;19;20507;-78
2022/06/24 10:11:26;;;;;;;1.58;0.55;;;;;;;21.83;62.22;99998.56;7383783;19;20017;-79
2022/06/24 10:13:54;;;;;;;1.00;0.45;;;;;;;21.85;61.44;100000.97;7381826;19;20030;-76
2022/06/24 10:16:21;;;;;;;4.13;0.40;;;;;;;21.81;61.70;100005.19;7381197;19;20106;-77
2022/06/24 10:18:50;;;;;;;1.92;0.47;;;;;;;21.79;61.68;100002.75;7384756;19;20015;-78
2022/06/24 10:21:19;;;;;;;2.72;0.50;;;;;;;21.76;61.90;100004.06;7382483;19;20011;-77
2022/06/24 10:23:50;;;;;;;2.28;0.47;;;;;;;21.81;62.40;100002.53;7382451;19;20023;-77
2022/06/24 10:26:29;;;;;;;2.10;0.60;;;;;;;21.79;62.19;99999.28;7382696;19;20077;-79
2022/06/24 10:28:59;;;;;;;5.57;1.25;;;;;;;21.78;62.09;100006.53;7383320;19;20437;-78
2022/06/24 10:31:54;;;;;;;4.65;0.93;;;;;;;21.80;61.65;99996.34;7383604;19;20018;-79
2022/06/24 10:34:33;;;;;;;1.25;0.40;;;;;;;21.81;61.54;99995.28;7381948;19;20025;-77
2022/06/24 10:37:18;;;;;;;1.92;0.50;;;;;;;21.78;60.72;99993.13;7383151;19;20309;-78
2022/06/24 10:39:56;;;;;;;3.83;0.50;;;;;;;21.74;61.01;99997.31;7381680;19;20031;-77
2022/06/24 10:42:24;;;;;;;2.25;0.50;;;;;;;21.73;61.44;99999.22;7383823;19;20444;-78
2022/06/24 10:45:05;;;;;;;1.23;0.40;;;;;;;21.73;62.03;99999.22;7381398;19;20084;-78
2022/06/24 10:47:35;;;;;;;7.38;0.90;;;;;;;21.75;62.17;99997.09;7379745;19;20015;-77
2022/06/24 10:50:03;;;;;;;3.33;0.60;;;;;;;21.73;62.21;99995.72;7384007;19;20086;-78
2022/06/24 10:52:39;;;;;;;1.88;0.60;;;;;;;21.71;62.22;99992.47;7384318;19;20018;-79
2022/06/24 10:55:15;;;;;;;2.65;0.60;;;;;;;21.72;62.26;99994.09;7383043;19;20034;-78
2022/06/24 10:57:46;;;;;;;3.50;0.75;;;;;;;21.71;62.64;99998.66;7382645;19;20459;-77
2022/06/24 11:00:21;;;;;;;3.38;0.68;;;;;;;21.75;62.11;99997.09;7384409;19;20014;-79
2022/06/24 11:02:51;;;;;;;1.38;0.40;;;;;;;21.79;62.23;99999.28;7380540;19;20097;-77
2022/06/24 11:05:26;;;;;;;2.67;0.50;;;;;;;21.80;61.86;100004.38;7381630;19;20014;-77
2022/06/24 11:07:53;;;;;;;2.35;0.60;;;;;;;21.77;61.85;99995.00;7382495;19;20031;-79
2022/06/24 11:10:23;;;;;;;4.13;1.10;;;;;;;21.85;62.07;99992.94;7381235;19;20018;-78
2022/06/24 11:12:52;;;;;;;2.28;0.80;;;;;;;21.88;61.86;100000.50;7382938;19;20014;-78
2022/06/24 11:15:39;;;;;;;2.08;0.77;;;;;;;21.91;62.06;99991.94;7389119;19;20022;-78
2022/06/24 11:18:19;;;;;;;2.40;0.60;;;;;;;21.88;61.61;99987.91;7388963;19;20682;-78
2022/06/24 11:20:51;;;;;;;3.17;0.70;;;;;;;21.86;60.90;99994.56;7388344;19;20042;-78
2022/06/24 11:23:19;;;;;;;3.10;0.70;;;;;;;21.79;60.55;99989.38;7387807;19;20014;-78
2022/06/24 11:25:47;;;;;;;2.15;0.70;;;;;;;21.72;61.16;99994.91;7328016;19;20161;-79
2022/06/24 11:28:32;;;;;;;3.05;0.50;;;;;;;21.70;61.85;99988.16;7382048;19;20471;-78
2022/06/24 11:31:19;;;;;;;4.05;0.90;;;;;;;21.67;62.37;99988.69;7388564;19;20042;-77
2022/06/24 11:33:50;;;;;;;4.32;0.63;;;;;;;21.64;62.19;99984.59;7386123;19;20050;-77
2022/06/24 11:36:21;;;;;;;1.80;0.60;;;;;;;21.63;62.14;99987.56;7387054;19;20018;-77
2022/06/24 11:39:09;;;;;;;2.75;0.73;;;;;;;21.62;62.56;99984.06;7385704;19;20021;-77
2022/06/24 11:41:40;;;;;;;2.13;0.50;;;;;;;21.65;62.36;99978.19;7389099;19;20449;-78
2022/06/24 11:44:31;;;;;;;3.30;0.60;;;;;;;21.69;62.11;99982.00;7388403;19;20121;-78